createdAt,value
2023-05-20T00:00:29.931Z,17.94
2023-05-20T00:03:00.210Z,17.91
2023-05-20T00:05:28.236Z,17.94
2023-05-20T00:07:57.820Z,17.93
2023-05-20T00:10:25.729Z,17.89
2023-05-20T00:12:53.477Z,17.88
2023-05-20T00:15:21.363Z,17.87
2023-05-20T00:17:49.304Z,17.81
2023-05-20T00:20:17.101Z,17.71
2023-05-20T00:22:44.814Z,17.76
2023-05-20T00:25:14.781Z,17.75
2023-05-20T00:27:42.674Z,17.80
2023-05-20T00:30:11.523Z,17.80
2023-05-20T00:32:39.447Z,17.74
2023-05-20T00:35:09.327Z,17.70
2023-05-20T00:37:37.331Z,17.71
2023-05-20T00:40:06.778Z,17.71
2023-05-20T00:42:36.066Z,17.69
2023-05-20T00:45:04.188Z,17.69
2023-05-20T00:47:34.578Z,17.64
2023-05-20T00:50:03.423Z,17.65
2023-05-20T00:52:33.419Z,17.63
2023-05-20T00:55:01.297Z,17.65
2023-05-20T00:57:29.514Z,17.56
2023-05-20T00:59:58.881Z,17.62
2023-05-20T01:02:26.951Z,17.61
2023-05-20T01:04:56.675Z,17.58
2023-05-20T01:07:25.638Z,17.60
2023-05-20T01:09:55.866Z,17.55
2023-05-20T01:12:28.109Z,17.56
2023-05-20T01:15:00.528Z,17.55
2023-05-20T01:17:32.974Z,17.50
2023-05-20T01:20:04.294Z,17.39
2023-05-20T01:22:33.494Z,17.41
2023-05-20T01:25:03.068Z,17.40
2023-05-20T01:27:31.341Z,17.43
2023-05-20T01:29:59.158Z,17.37
2023-05-20T01:32:33.004Z,17.38
2023-05-20T01:35:01.570Z,17.37
2023-05-20T01:37:29.847Z,17.37
2023-05-20T01:40:00.477Z,17.36
2023-05-20T01:42:30.057Z,17.34
2023-05-20T01:45:00.039Z,17.34
2023-05-20T01:47:28.013Z,17.32
2023-05-20T01:49:56.539Z,17.31
2023-05-20T01:52:24.724Z,17.30
2023-05-20T01:54:52.490Z,17.24
2023-05-20T01:57:22.398Z,17.22
2023-05-20T01:59:51.609Z,17.18
2023-05-20T02:02:19.634Z,17.16
2023-05-20T02:04:49.851Z,17.12
2023-05-20T02:07:18.797Z,17.06
2023-05-20T02:09:47.212Z,17.07
2023-05-20T02:12:17.373Z,17.14
2023-05-20T02:14:47.561Z,17.11
2023-05-20T02:17:17.853Z,17.09
2023-05-20T02:19:46.167Z,17.08
2023-05-20T02:22:14.319Z,17.06
2023-05-20T02:24:44.555Z,17.03
2023-05-20T02:27:12.978Z,17.02
2023-05-20T02:29:40.814Z,17.00
2023-05-20T02:32:10.132Z,17.01
2023-05-20T02:34:37.925Z,17.00
2023-05-20T02:37:06.354Z,16.95
2023-05-20T02:39:34.219Z,16.90
2023-05-20T02:42:02.158Z,16.92
2023-05-20T02:44:30.164Z,16.91
2023-05-20T02:46:58.391Z,16.88
2023-05-20T02:49:27.562Z,16.90
2023-05-20T02:51:56.887Z,16.87
2023-05-20T02:54:24.842Z,16.88
2023-05-20T02:56:52.806Z,16.84
2023-05-20T02:59:20.654Z,16.83
2023-05-20T03:01:48.811Z,16.87
2023-05-20T03:04:19.251Z,16.85
2023-05-20T03:06:48.540Z,16.77
2023-05-20T03:09:17.032Z,16.73
2023-05-20T03:11:45.210Z,16.74
2023-05-20T03:14:13.103Z,16.74
2023-05-20T03:16:41.633Z,16.74
2023-05-20T03:19:09.525Z,16.76
2023-05-20T03:21:37.651Z,16.69
2023-05-20T03:24:07.343Z,16.76
2023-05-20T03:26:37.609Z,16.76
2023-05-20T03:29:06.862Z,16.73
2023-05-20T03:31:34.862Z,16.73
2023-05-20T03:34:02.823Z,16.76
2023-05-20T03:36:31.155Z,16.75
2023-05-20T03:38:59.373Z,16.75
2023-05-20T03:41:28.574Z,16.78
2023-05-20T03:43:57.060Z,16.78
2023-05-20T03:46:26.179Z,16.77
2023-05-20T03:48:54.020Z,16.80
2023-05-20T03:51:21.783Z,16.75
2023-05-20T03:53:51.031Z,16.74
2023-05-20T03:56:18.783Z,16.74
2023-05-20T03:58:48.189Z,16.73
2023-05-20T04:01:15.981Z,16.77
2023-05-20T04:03:44.090Z,16.77
2023-05-20T04:06:12.147Z,16.72
2023-05-20T04:08:40.061Z,16.77
2023-05-20T04:11:08.155Z,16.77
2023-05-20T04:13:36.146Z,16.67
2023-05-20T04:16:06.501Z,16.71
2023-05-20T04:18:38.996Z,16.69
2023-05-20T04:21:08.326Z,16.75
2023-05-20T04:23:36.084Z,16.80
2023-05-20T04:26:04.310Z,16.81
2023-05-20T04:28:33.388Z,16.86
2023-05-20T04:31:02.872Z,16.80
2023-05-20T04:33:32.889Z,16.83
2023-05-20T04:36:03.191Z,16.89
2023-05-20T04:38:32.444Z,16.91
2023-05-20T04:41:02.389Z,16.86
2023-05-20T04:43:31.738Z,16.88
2023-05-20T04:46:01.423Z,16.88
2023-05-20T04:48:29.532Z,16.90
2023-05-20T04:50:59.617Z,16.92
2023-05-20T04:53:27.426Z,16.94
2023-05-20T04:55:57.054Z,16.93
2023-05-20T04:58:25.499Z,16.98
2023-05-20T05:00:54.148Z,16.98
2023-05-20T05:03:21.925Z,16.96
2023-05-20T05:05:50.425Z,16.98
2023-05-20T05:08:19.695Z,17.03
2023-05-20T05:10:51.689Z,17.01
2023-05-20T05:13:19.556Z,17.04
2023-05-20T05:15:47.428Z,17.00
2023-05-20T05:18:18.513Z,17.03
2023-05-20T05:20:46.474Z,16.99
2023-05-20T05:23:14.346Z,17.02
2023-05-20T05:25:43.878Z,17.00
2023-05-20T05:28:11.735Z,17.06
2023-05-20T05:30:40.114Z,17.13
2023-05-20T05:33:08.189Z,17.12
2023-05-20T05:35:36.261Z,17.13
2023-05-20T05:38:04.189Z,17.15
2023-05-20T05:40:32.113Z,17.18
2023-05-20T05:43:01.431Z,17.20
2023-05-20T05:45:29.727Z,17.14
2023-05-20T05:47:58.266Z,17.18
2023-05-20T05:50:26.866Z,17.20
2023-05-20T05:52:55.517Z,17.13
2023-05-20T05:55:24.421Z,17.08
2023-05-20T05:57:53.005Z,17.11
2023-05-20T06:00:22.181Z,17.14
2023-05-20T06:02:50.315Z,17.19
2023-05-20T06:05:33.621Z,17.20
2023-05-20T06:08:02.107Z,17.18
2023-05-20T06:10:31.423Z,17.11
2023-05-20T06:12:59.544Z,17.02
2023-05-20T06:15:29.698Z,17.02
2023-05-20T06:17:58.246Z,17.05
2023-05-20T06:20:27.388Z,17.14
2023-05-20T06:22:55.521Z,17.18
2023-05-20T06:25:26.214Z,17.13
2023-05-20T06:27:54.200Z,17.20
2023-05-20T06:30:23.556Z,17.20
2023-05-20T06:32:53.081Z,17.17
2023-05-20T06:35:21.189Z,17.15
2023-05-20T06:37:49.044Z,17.13
2023-05-20T06:40:17.810Z,17.20
2023-05-20T06:42:45.811Z,17.16
2023-05-20T06:45:14.624Z,17.15
2023-05-20T06:47:45.178Z,17.07
2023-05-20T06:50:14.624Z,17.13
2023-05-20T06:52:42.484Z,17.14
2023-05-20T06:55:11.275Z,17.19
2023-05-20T06:57:39.147Z,17.23
2023-05-20T07:00:09.190Z,17.28
2023-05-20T07:02:41.537Z,17.30
2023-05-20T07:05:10.561Z,17.33
2023-05-20T07:07:39.834Z,17.39
2023-05-20T07:10:09.119Z,17.41
2023-05-20T07:12:37.201Z,17.37
2023-05-20T07:15:06.136Z,17.25
2023-05-20T07:17:34.860Z,17.32
2023-05-20T07:20:04.155Z,17.40
2023-05-20T07:22:32.631Z,17.46
2023-05-20T07:25:14.230Z,17.41
2023-05-20T07:27:42.079Z,17.30
2023-05-20T07:30:10.438Z,17.42
2023-05-20T07:32:40.724Z,17.27
2023-05-20T07:35:11.069Z,17.35
2023-05-20T07:37:38.876Z,17.40
2023-05-20T07:40:09.813Z,17.41
2023-05-20T07:42:40.661Z,17.51
2023-05-20T07:45:10.065Z,17.53
2023-05-20T07:47:38.925Z,17.52
2023-05-20T07:50:08.120Z,17.58
2023-05-20T07:52:48.199Z,17.58
2023-05-20T07:55:24.979Z,17.66
2023-05-20T07:57:54.816Z,17.68
2023-05-20T08:00:24.297Z,17.71
2023-05-20T08:02:52.395Z,17.67
2023-05-20T08:05:27.073Z,17.76
2023-05-20T08:07:55.200Z,17.77
2023-05-20T08:10:25.824Z,17.88
2023-05-20T08:12:55.985Z,17.97
2023-05-20T08:15:23.962Z,18.06
2023-05-20T08:17:51.848Z,18.03
2023-05-20T08:20:20.929Z,18.11
2023-05-20T08:22:48.868Z,18.12
2023-05-20T08:25:20.237Z,18.20
2023-05-20T08:27:48.320Z,18.19
2023-05-20T08:30:19.129Z,18.18
2023-05-20T08:32:48.822Z,18.27
2023-05-20T08:35:16.875Z,18.39
2023-05-20T08:37:44.680Z,18.36
2023-05-20T08:40:14.257Z,18.33
2023-05-20T08:42:43.703Z,18.47
2023-05-20T08:45:14.298Z,18.50
2023-05-20T08:47:44.186Z,18.58
2023-05-20T08:50:14.300Z,18.63
2023-05-20T08:52:45.306Z,18.69
2023-05-20T08:55:17.327Z,18.75
2023-05-20T08:57:47.221Z,18.79
2023-05-20T09:00:17.190Z,18.83
2023-05-20T09:02:47.678Z,18.83
2023-05-20T09:05:15.840Z,18.62
2023-05-20T09:07:43.787Z,18.82
2023-05-20T09:10:12.178Z,18.83
2023-05-20T09:12:40.418Z,18.88
2023-05-20T09:15:09.846Z,18.87
2023-05-20T09:17:38.419Z,19.00
2023-05-20T09:20:12.905Z,19.09
2023-05-20T09:22:41.630Z,19.14
2023-05-20T09:25:12.490Z,19.19
2023-05-20T09:27:41.615Z,19.24
2023-05-20T09:30:12.901Z,19.22
2023-05-20T09:32:44.254Z,19.24
2023-05-20T09:35:15.763Z,19.20
2023-05-20T09:37:48.562Z,19.21
2023-05-20T09:40:21.305Z,19.20
2023-05-20T09:42:53.978Z,19.32
2023-05-20T09:45:23.401Z,19.31
2023-05-20T09:47:53.475Z,19.35
2023-05-20T09:50:24.665Z,19.44
2023-05-20T09:52:55.482Z,19.42
2023-05-20T09:55:26.192Z,19.52
2023-05-20T09:57:55.209Z,19.55
2023-05-20T10:00:23.410Z,19.49
2023-05-20T10:02:52.961Z,19.48
2023-05-20T10:05:24.250Z,19.55
2023-05-20T10:08:23.454Z,19.70
2023-05-20T10:10:57.789Z,19.77
2023-05-20T10:13:44.209Z,19.71
2023-05-20T10:16:25.088Z,19.61
2023-05-20T10:19:03.127Z,19.62
2023-05-20T10:21:33.293Z,19.65
2023-05-20T10:24:08.097Z,19.69
2023-05-20T10:26:37.252Z,19.61
2023-05-20T10:29:17.818Z,19.55
2023-05-20T10:31:46.716Z,19.55
2023-05-20T10:34:17.419Z,19.54
2023-05-20T10:36:49.310Z,19.45
2023-05-20T10:39:18.013Z,19.45
2023-05-20T10:41:46.035Z,19.41
2023-05-20T10:44:13.851Z,19.47
2023-05-20T10:46:57.181Z,19.48
2023-05-20T10:49:36.131Z,19.56
2023-05-20T10:52:05.709Z,19.61
2023-05-20T10:54:37.074Z,19.68
2023-05-20T10:57:09.239Z,19.72
2023-05-20T10:59:37.496Z,19.72
2023-05-20T11:02:06.044Z,19.71
2023-05-20T11:04:34.059Z,19.72
2023-05-20T11:07:02.480Z,19.69
2023-05-20T11:09:32.356Z,19.66
2023-05-20T11:12:00.260Z,19.63
2023-05-20T11:14:29.833Z,19.73
2023-05-20T11:16:59.117Z,19.83
2023-05-20T11:19:27.728Z,19.94
2023-05-20T11:21:56.004Z,19.85
2023-05-20T11:24:26.756Z,19.98
2023-05-20T11:26:58.468Z,19.96
2023-05-20T11:29:28.995Z,19.88
2023-05-20T11:31:57.150Z,19.89
2023-05-20T11:34:26.822Z,19.77
2023-05-20T11:36:58.710Z,19.87
2023-05-20T11:39:27.872Z,19.95
2023-05-20T11:41:57.307Z,20.02
2023-05-20T11:44:26.398Z,20.04
2023-05-20T11:47:01.099Z,20.09
2023-05-20T11:49:29.190Z,20.10
2023-05-20T11:51:58.081Z,20.17
2023-05-20T11:54:26.033Z,20.26
2023-05-20T11:56:57.074Z,20.36
2023-05-20T11:59:25.736Z,20.31
2023-05-20T12:01:53.798Z,20.48
2023-05-20T12:04:21.889Z,20.66
2023-05-20T12:06:49.733Z,20.77
2023-05-20T12:09:17.683Z,20.72
2023-05-20T12:11:45.612Z,20.75
2023-05-20T12:14:14.945Z,20.75
2023-05-20T12:16:42.687Z,20.72
2023-05-20T12:19:10.590Z,20.74
2023-05-20T12:21:38.776Z,20.64
2023-05-20T12:24:08.561Z,20.61
2023-05-20T12:26:36.636Z,20.65
2023-05-20T12:29:04.611Z,20.44
2023-05-20T12:31:35.118Z,20.42
2023-05-20T12:34:03.770Z,20.26
2023-05-20T12:36:32.361Z,20.30
2023-05-20T12:39:00.479Z,20.36
2023-05-20T12:41:28.429Z,20.47
2023-05-20T12:43:56.645Z,20.58
2023-05-20T12:46:24.713Z,20.71
2023-05-20T12:48:53.957Z,20.62
2023-05-20T12:51:21.730Z,20.65
2023-05-20T12:53:49.554Z,20.80
2023-05-20T12:56:17.735Z,20.91
2023-05-20T12:58:46.279Z,20.84
2023-05-20T13:01:14.250Z,21.11
2023-05-20T13:03:42.221Z,21.27
2023-05-20T13:06:11.458Z,21.23
2023-05-20T13:08:39.317Z,21.12
2023-05-20T13:11:07.324Z,21.10
2023-05-20T13:13:35.190Z,20.97
2023-05-20T13:16:03.531Z,20.80
2023-05-20T13:18:31.261Z,20.75
2023-05-20T13:20:59.109Z,20.95
2023-05-20T13:23:28.314Z,20.90
2023-05-20T13:25:56.582Z,21.08
2023-05-20T13:28:24.480Z,21.30
2023-05-20T13:30:52.525Z,21.63
2023-05-20T13:33:20.348Z,21.56
2023-05-20T13:35:48.313Z,21.55
2023-05-20T13:38:16.310Z,21.44
2023-05-20T13:40:45.479Z,21.43
2023-05-20T13:43:13.274Z,21.34
2023-05-20T13:45:41.056Z,21.30
2023-05-20T13:48:08.865Z,21.33
2023-05-20T13:50:36.790Z,21.33
2023-05-20T13:53:05.314Z,21.40
2023-05-20T13:55:33.096Z,21.39
2023-05-20T13:58:02.294Z,21.26
2023-05-20T14:00:30.151Z,21.21
2023-05-20T14:02:59.203Z,21.16
2023-05-20T14:05:27.504Z,21.12
2023-05-20T14:07:55.453Z,21.19
2023-05-20T14:10:23.529Z,21.16
2023-05-20T14:12:51.686Z,21.39
2023-05-20T14:15:21.789Z,21.49
2023-05-20T14:17:49.619Z,21.44
2023-05-20T14:20:17.763Z,21.32
2023-05-20T14:22:45.623Z,21.56
2023-05-20T14:25:13.608Z,21.80
2023-05-20T14:27:41.388Z,22.01
2023-05-20T14:30:10.788Z,21.81
2023-05-20T14:32:40.075Z,21.67
2023-05-20T14:35:09.028Z,21.69
2023-05-20T14:37:36.926Z,21.65
2023-05-20T14:40:07.448Z,21.60
2023-05-20T14:42:35.564Z,21.72
2023-05-20T14:45:03.673Z,21.76
2023-05-20T14:47:31.568Z,21.96
2023-05-20T14:50:01.309Z,21.99
2023-05-20T14:52:29.217Z,21.89
2023-05-20T14:54:57.636Z,21.82
2023-05-20T14:57:25.508Z,21.52
2023-05-20T14:59:53.292Z,21.32
2023-05-20T15:02:21.204Z,21.31
2023-05-20T15:04:49.020Z,21.34
2023-05-20T15:07:21.343Z,21.33
2023-05-20T15:09:49.959Z,21.35
2023-05-20T15:12:17.712Z,21.45
2023-05-20T15:14:45.491Z,21.46
2023-05-20T15:17:13.724Z,21.40
2023-05-20T15:19:41.954Z,21.21
2023-05-20T15:22:10.072Z,21.19
2023-05-20T15:24:39.405Z,21.19
2023-05-20T15:27:07.386Z,21.14
2023-05-20T15:29:35.236Z,21.17
2023-05-20T15:32:03.353Z,21.41
2023-05-20T15:34:31.351Z,21.51
2023-05-20T15:36:59.467Z,21.59
2023-05-20T15:39:28.499Z,21.82
2023-05-20T15:41:59.453Z,21.95
2023-05-20T15:44:28.751Z,21.87
2023-05-20T15:46:56.688Z,21.83
2023-05-20T15:49:24.592Z,21.58
2023-05-20T15:52:03.023Z,21.47
2023-05-20T15:54:32.302Z,21.50
2023-05-20T15:57:02.753Z,21.31
2023-05-20T15:59:30.789Z,21.15
2023-05-20T16:01:58.750Z,21.04
2023-05-20T16:04:26.674Z,21.28
2023-05-20T16:06:54.529Z,21.48
2023-05-20T16:09:22.495Z,21.66
2023-05-20T16:11:50.326Z,21.81
2023-05-20T16:14:19.673Z,21.90
2023-05-20T16:16:47.571Z,22.05
2023-05-20T16:19:15.540Z,22.10
2023-05-20T16:21:43.332Z,22.14
2023-05-20T16:24:11.105Z,22.15
2023-05-20T16:26:39.057Z,22.21
2023-05-20T16:29:06.902Z,22.18
2023-05-20T16:31:36.280Z,22.26
2023-05-20T16:34:04.912Z,22.38
2023-05-20T16:36:32.800Z,22.41
2023-05-20T16:39:00.838Z,22.49
2023-05-20T16:41:28.801Z,22.49
2023-05-20T16:43:56.758Z,22.45
2023-05-20T16:46:24.700Z,22.29
2023-05-20T16:48:53.886Z,21.93
2023-05-20T16:51:22.069Z,22.05
2023-05-20T16:53:49.862Z,22.05
2023-05-20T16:56:17.706Z,21.93
2023-05-20T16:58:45.576Z,21.81
2023-05-20T17:01:13.428Z,21.78
2023-05-20T17:03:41.214Z,21.79
2023-05-20T17:06:10.428Z,21.74
2023-05-20T17:08:39.037Z,21.45
2023-05-20T17:11:06.857Z,21.63
2023-05-20T17:13:34.591Z,21.68
2023-05-20T17:16:02.433Z,21.59
2023-05-20T17:18:30.357Z,21.58
2023-05-20T17:20:58.217Z,21.52
2023-05-20T17:23:27.351Z,21.57
2023-05-20T17:25:55.292Z,21.61
2023-05-20T17:28:23.305Z,21.57
2023-05-20T17:30:51.222Z,21.57
2023-05-20T17:33:19.278Z,21.52
2023-05-20T17:35:47.168Z,21.41
2023-05-20T17:38:14.942Z,21.31
2023-05-20T17:40:44.182Z,21.20
2023-05-20T17:43:11.983Z,21.28
2023-05-20T17:45:39.865Z,21.31
2023-05-20T17:48:10.101Z,21.27
2023-05-20T17:50:39.500Z,21.31
2023-05-20T17:53:07.427Z,21.20
2023-05-20T17:55:36.525Z,21.17
2023-05-20T17:58:07.149Z,21.15
2023-05-20T18:00:41.948Z,21.11
2023-05-20T18:03:10.556Z,21.06
2023-05-20T18:05:38.736Z,20.71
2023-05-20T18:08:06.780Z,20.89
2023-05-20T18:10:34.874Z,20.87
2023-05-20T18:13:04.009Z,20.89
2023-05-20T18:15:33.291Z,20.82
2023-05-20T18:18:01.424Z,20.79
2023-05-20T18:20:29.703Z,20.79
2023-05-20T18:22:58.748Z,20.79
2023-05-20T18:25:27.384Z,20.86
2023-05-20T18:27:55.286Z,20.84
2023-05-20T18:30:23.397Z,20.81
2023-05-20T18:32:53.267Z,20.75
2023-05-20T18:35:21.081Z,20.67
2023-05-20T18:37:48.911Z,20.62
2023-05-20T18:40:16.749Z,20.65
2023-05-20T18:42:44.546Z,20.73
2023-05-20T18:45:12.997Z,20.72
2023-05-20T18:47:40.908Z,20.77
2023-05-20T18:50:11.295Z,20.74
2023-05-20T18:52:39.092Z,20.75
2023-05-20T18:55:08.060Z,20.69
2023-05-20T18:57:35.835Z,20.72
2023-05-20T19:00:07.671Z,20.75
2023-05-20T19:02:35.463Z,20.76
2023-05-20T19:05:03.513Z,20.82
2023-05-20T19:07:33.108Z,20.85
2023-05-20T19:10:01.266Z,20.81
2023-05-20T19:12:29.296Z,20.75
2023-05-20T19:14:57.163Z,20.73
2023-05-20T19:17:25.374Z,20.72
2023-05-20T19:19:53.179Z,20.73
2023-05-20T19:22:21.080Z,20.77
2023-05-20T19:24:50.214Z,20.73
2023-05-20T19:27:17.988Z,20.64
2023-05-20T19:29:45.951Z,20.63
2023-05-20T19:32:13.724Z,20.61
2023-05-20T19:34:41.857Z,20.64
2023-05-20T19:37:09.582Z,20.62
2023-05-20T19:39:37.383Z,20.56
2023-05-20T19:42:07.013Z,20.59
2023-05-20T19:44:34.985Z,20.58
2023-05-20T19:47:05.496Z,20.58
2023-05-20T19:49:33.783Z,20.62
2023-05-20T19:52:01.764Z,20.59
2023-05-20T19:54:29.871Z,20.63
2023-05-20T19:56:58.005Z,20.60
2023-05-20T19:59:27.247Z,20.58
2023-05-20T20:01:55.286Z,20.63
2023-05-20T20:04:23.097Z,20.64
2023-05-20T20:06:51.095Z,20.62
2023-05-20T20:09:18.914Z,20.61
2023-05-20T20:11:46.733Z,20.59
2023-05-20T20:14:14.474Z,20.61
2023-05-20T20:16:48.758Z,20.56
2023-05-20T20:19:22.851Z,20.56
2023-05-20T20:21:52.976Z,20.57
2023-05-20T20:24:21.362Z,20.56
2023-05-20T20:26:49.256Z,20.54
2023-05-20T20:29:17.094Z,20.50
2023-05-20T20:31:46.501Z,20.51
2023-05-20T20:34:14.418Z,20.51
2023-05-20T20:36:44.906Z,20.53
2023-05-20T20:39:18.897Z,20.53
2023-05-20T20:41:47.393Z,20.51
2023-05-20T20:44:18.594Z,20.48
2023-05-20T20:46:50.735Z,20.45
2023-05-20T20:49:18.898Z,20.46
2023-05-20T20:51:46.695Z,20.40
2023-05-20T20:54:15.315Z,20.43
2023-05-20T20:56:45.396Z,20.40
2023-05-20T20:59:13.865Z,20.34
2023-05-20T21:01:42.286Z,20.34
2023-05-20T21:04:13.820Z,20.38
2023-05-20T21:06:45.872Z,20.40
2023-05-20T21:09:13.929Z,20.40
2023-05-20T21:11:42.815Z,20.40
2023-05-20T21:14:10.642Z,20.39
2023-05-20T21:16:38.651Z,20.38
2023-05-20T21:19:06.587Z,20.27
2023-05-20T21:21:36.174Z,20.26
2023-05-20T21:24:04.382Z,20.24
2023-05-20T21:26:32.149Z,20.25
2023-05-20T21:28:59.985Z,20.26
2023-05-20T21:31:28.047Z,20.26
2023-05-20T21:33:56.022Z,20.24
2023-05-20T21:36:23.828Z,20.24
2023-05-20T21:38:52.954Z,20.29
2023-05-20T21:41:21.529Z,20.24
2023-05-20T21:43:49.348Z,20.22
2023-05-20T21:46:17.212Z,20.21
2023-05-20T21:48:44.990Z,20.23
2023-05-20T21:51:13.177Z,20.23
2023-05-20T21:53:41.960Z,20.14
2023-05-20T21:56:11.419Z,20.14
2023-05-20T21:58:42.714Z,20.15
2023-05-20T22:01:10.789Z,20.16
2023-05-20T22:03:39.876Z,20.11
2023-05-20T22:06:08.027Z,20.15
2023-05-20T22:08:35.853Z,20.16
2023-05-20T22:11:07.204Z,20.12
2023-05-20T22:13:41.315Z,20.08
2023-05-20T22:16:09.855Z,20.07
2023-05-20T22:18:38.489Z,20.02
2023-05-20T22:21:06.806Z,19.96
2023-05-20T22:23:34.547Z,19.94
2023-05-20T22:26:02.804Z,19.95
2023-05-20T22:28:30.615Z,19.91
2023-05-20T22:30:59.855Z,19.84
2023-05-20T22:33:27.834Z,19.83
2023-05-20T22:35:57.220Z,19.86
2023-05-20T22:38:25.636Z,19.86
2023-05-20T22:40:53.368Z,19.88
2023-05-20T22:43:23.237Z,19.90
2023-05-20T22:45:51.407Z,19.85
2023-05-20T22:48:23.108Z,19.88
2023-05-20T22:50:51.083Z,19.88
2023-05-20T22:53:18.882Z,19.85
2023-05-20T22:55:46.711Z,19.84
2023-05-20T22:58:14.605Z,19.83
2023-05-20T23:00:44.331Z,19.74
2023-05-20T23:03:12.199Z,19.80
2023-05-20T23:05:41.459Z,19.78
2023-05-20T23:08:09.280Z,19.73
2023-05-20T23:10:37.038Z,19.70
2023-05-20T23:13:05.660Z,19.63
2023-05-20T23:15:33.935Z,19.62
2023-05-20T23:18:02.320Z,19.59
2023-05-20T23:20:30.276Z,19.52
2023-05-20T23:23:03.459Z,19.43
2023-05-20T23:25:36.550Z,19.43
2023-05-20T23:28:05.728Z,19.33
2023-05-20T23:30:33.916Z,19.32
2023-05-20T23:33:02.182Z,19.31
2023-05-20T23:35:30.181Z,19.27
2023-05-20T23:37:59.553Z,19.26
2023-05-20T23:40:27.358Z,19.24
2023-05-20T23:42:55.248Z,19.23
2023-05-20T23:45:23.192Z,19.27
2023-05-20T23:47:51.057Z,19.25
2023-05-20T23:50:18.852Z,19.22
2023-05-20T23:52:46.658Z,19.26
2023-05-20T23:55:18.301Z,19.26
2023-05-20T23:57:46.134Z,19.34
